Time;durP1;ratioP1;P1;durP2;ratioP2;P2;SDS_P1;SDS_P2;PMS_P1;PMS_P2;Temp;Humidity;BMP_temperature;BMP_pressure;BME280_temperature;BME280_humidity;BME280_pressure;Samples;Min_cycle;Max_cycle;Signal;HPM_P1;HPM_P2
2023/09/30 00:01:27;;;;;;;;;7.00;6.00;;;;;21.03;72.57;101090.88;5068887;27;45501;-86
2023/09/30 00:03:53;;;;;;;;;11.00;10.00;;;;;21.02;71.22;101088.22;5070223;27;45587;-74
2023/09/30 00:06:19;;;;;;;;;8.33;7.00;;;;;21.02;70.54;101082.91;5089240;27;45445;-83
2023/09/30 00:08:45;;;;;;;;;11.00;8.67;;;;;21.03;70.39;101087.34;5071843;27;45614;-76
2023/09/30 00:11:11;;;;;;;;;11.33;7.33;;;;;20.93;71.10;101083.84;5071508;27;45446;-85
2023/09/30 00:13:36;;;;;;;;;7.67;7.00;;;;;21.00;71.01;101100.63;5084661;27;45483;-77
2023/09/30 00:16:02;;;;;;;;;7.33;7.00;;;;;21.09;71.15;101116.53;5085952;27;45485;-86
2023/09/30 00:18:28;;;;;;;;;9.67;7.00;;;;;21.08;71.42;101111.22;5086223;27;45401;-81
2023/09/30 00:20:54;;;;;;;;;7.00;6.00;;;;;21.06;71.06;101119.19;5086367;27;45351;-83
2023/09/30 00:23:21;;;;;;;;;10.00;8.67;;;;;21.00;71.14;101104.16;5088183;27;45473;-85
2023/09/30 00:25:48;;;;;;;;;8.67;7.67;;;;;21.01;71.00;101105.94;5086029;27;45484;-82
2023/09/30 00:28:14;;;;;;;;;5.00;4.00;;;;;21.01;71.08;101110.38;5087218;27;45522;-87
2023/09/30 00:30:40;;;;;;;;;8.00;8.00;;;;;21.07;70.68;101123.63;5084886;27;45774;-86
2023/09/30 00:33:05;;;;;;;;;6.33;6.33;;;;;20.98;70.71;101103.28;5086629;27;45323;-75
2023/09/30 00:35:32;;;;;;;;;10.33;8.33;;;;;21.11;70.28;101125.38;5065581;27;45488;-85
2023/09/30 00:37:58;;;;;;;;;8.33;7.00;;;;;21.10;70.63;101123.59;5082758;27;45664;-86
2023/09/30 00:40:23;;;;;;;;;5.67;5.67;;;;;20.97;70.29;101117.47;5084126;27;45390;-82
2023/09/30 00:42:49;;;;;;;;;7.00;6.33;;;;;20.88;70.47;101130.75;5070612;27;45592;-82
2023/09/30 00:45:15;;;;;;;;;4.00;3.33;;;;;20.69;70.37;101127.28;5083500;27;45884;-86
2023/09/30 00:47:40;;;;;;;;;5.67;5.00;;;;;20.68;70.69;101130.81;5084197;27;45523;-86
2023/09/30 00:50:08;;;;;;;;;7.33;6.00;;;;;20.63;70.20;101125.53;5083626;27;45501;-74
2023/09/30 00:52:35;;;;;;;;;6.00;5.00;;;;;20.59;70.88;101109.59;5086397;27;45547;-83
2023/09/30 00:55:05;;;;;;;;;7.67;6.33;;;;;20.78;70.86;101131.69;5075642;27;46927;-85
2023/09/30 00:57:31;;;;;;;;;5.00;5.00;;;;;20.75;71.24;101121.97;5064898;27;45557;-86
2023/09/30 00:59:58;;;;;;;;;7.00;6.00;;;;;20.83;70.50;101119.25;5082296;27;45470;-84
2023/09/30 01:02:24;;;;;;;;;8.67;6.67;;;;;20.89;70.71;101124.56;5065377;27;46103;-85
2023/09/30 01:04:50;;;;;;;;;6.33;6.00;;;;;20.98;70.29;101129.84;5084253;27;45927;-84
2023/09/30 01:07:16;;;;;;;;;7.00;6.33;;;;;20.98;70.37;101118.34;5069210;27;45593;-85
2023/09/30 01:09:42;;;;;;;;;6.67;6.67;;;;;21.03;70.43;101124.53;5085937;27;45408;-80
2023/09/30 01:12:08;;;;;;;;;7.00;6.33;;;;;20.98;70.49;101118.34;5086419;27;45492;-75
2023/09/30 01:14:36;;;;;;;;;5.67;5.67;;;;;21.00;70.58;101120.09;5071698;27;45884;-86
2023/09/30 01:17:02;;;;;;;;;8.00;6.67;;;;;21.00;69.92;101120.09;5085947;27;45662;-85
2023/09/30 01:19:28;;;;;;;;;6.00;6.00;;;;;21.01;69.76;101119.22;5072214;27;45506;-87
2023/09/30 01:22:02;;;;;;;;;7.67;6.00;;;;;20.93;69.94;101117.44;5089007;27;45560;-79
2023/09/30 01:24:29;;;;;;;;;6.67;5.33;;;;;20.84;70.39;101113.06;5078235;27;46417;-82
2023/09/30 01:26:55;;;;;;;;;6.33;6.33;;;;;20.73;70.41;101101.59;5086206;27;45332;-85
2023/09/30 01:29:22;;;;;;;;;9.33;8.67;;;;;20.85;70.31;101114.84;5069524;27;45476;-86
2023/09/30 01:31:49;;;;;;;;;6.00;6.00;;;;;20.80;70.57;101098.03;5088030;27;45505;-84
2023/09/30 01:34:16;;;;;;;;;6.33;6.00;;;;;20.80;70.47;101092.72;5067620;27;46333;-85
2023/09/30 01:36:43;;;;;;;;;6.00;5.00;;;;;20.85;70.54;101098.91;5069349;27;45599;-86
2023/09/30 01:39:10;;;;;;;;;5.67;5.67;;;;;20.82;70.09;101091.81;5088324;27;45567;-80
2023/09/30 01:41:40;;;;;;;;;5.33;5.00;;;;;20.84;69.93;101089.16;5086162;27;45498;-84
2023/09/30 01:44:06;;;;;;;;;6.33;6.00;;;;;20.83;70.21;101092.69;5068661;27;45499;-83
2023/09/30 01:46:32;;;;;;;;;6.67;6.67;;;;;20.73;69.93;101080.34;5078153;27;45543;-82
2023/09/30 01:48:58;;;;;;;;;8.00;5.33;;;;;20.68;70.26;101077.72;5067980;27;45385;-85
2023/09/30 01:51:23;;;;;;;;;5.00;5.00;;;;;20.65;70.60;101081.28;5066795;27;45640;-86
2023/09/30 01:53:49;;;;;;;;;10.33;7.00;;;;;20.68;70.59;101096.31;5086043;27;45365;-76
2023/09/30 01:56:15;;;;;;;;;7.00;6.00;;;;;20.65;70.08;101072.41;5069295;27;45711;-84
2023/09/30 01:58:41;;;;;;;;;5.33;5.33;;;;;20.59;70.33;101075.09;5086742;27;45165;-79
2023/09/30 02:01:07;;;;;;;;;4.67;4.33;;;;;20.58;70.39;101082.13;5068741;27;45515;-82
2023/09/30 02:03:32;;;;;;;;;6.00;4.00;;;;;20.67;70.23;101091.88;5087772;27;46393;-83
2023/09/30 02:05:58;;;;;;;;;5.00;4.33;;;;;20.73;70.53;101097.19;5084718;27;45323;-85
2023/09/30 02:08:24;;;;;;;;;5.67;5.33;;;;;20.66;70.17;101090.13;5077517;28;45454;-86
2023/09/30 02:10:53;;;;;;;;;5.33;5.33;;;;;20.63;69.83;101095.41;5077413;27;45727;-79
2023/09/30 02:13:19;;;;;;;;;10.00;8.00;;;;;20.57;70.05;101092.75;5074094;28;46050;-86
2023/09/30 02:15:45;;;;;;;;;8.33;6.33;;;;;20.61;69.98;101086.56;5057017;28;45229;-82
2023/09/30 02:18:11;;;;;;;;;10.67;9.67;;;;;20.65;70.82;101091.00;5062622;28;45430;-75
2023/09/30 02:20:39;;;;;;;;;11.00;10.00;;;;;20.64;71.00;101094.53;5045992;28;45261;-86
2023/09/30 02:23:11;;;;;;;;;5.00;4.67;;;;;20.71;70.97;101101.63;5045517;28;48340;-80
2023/09/30 02:25:38;;;;;;;;;6.00;6.00;;;;;20.77;70.47;101095.38;5045681;28;45276;-85
2023/09/30 02:28:04;;;;;;;;;6.33;6.00;;;;;20.77;70.32;101096.28;5063611;28;45256;-86
2023/09/30 02:30:30;;;;;;;;;10.00;9.00;;;;;20.82;70.91;101107.75;5045729;28;45378;-83
2023/09/30 02:32:56;;;;;;;;;8.00;7.00;;;;;20.75;70.68;101089.19;5045454;28;45501;-86
2023/09/30 02:35:22;;;;;;;;;10.33;9.67;;;;;20.85;70.80;101094.47;5062779;28;45435;-86
2023/09/30 02:37:50;;;;;;;;;9.00;6.33;;;;;20.91;70.60;101096.25;5074639;28;45523;-84
2023/09/30 02:40:16;;;;;;;;;10.67;8.00;;;;;20.94;70.65;101087.38;5083826;28;45396;-86
2023/09/30 02:42:43;;;;;;;;;8.33;7.00;;;;;21.03;69.85;101085.56;5083622;28;45375;-75
2023/09/30 02:45:10;;;;;;;;;8.67;7.00;;;;;21.08;69.68;101072.25;5083014;28;45354;-86
2023/09/30 02:47:37;;;;;;;;;7.00;7.00;;;;;21.29;69.18;101094.25;5063558;28;45439;-85
2023/09/30 02:50:05;;;;;;;;;6.67;5.33;;;;;21.24;69.06;101073.03;5063311;28;45403;-83
2023/09/30 02:52:31;;;;;;;;;6.67;4.67;;;;;21.22;69.49;101064.19;5063161;28;47343;-86
2023/09/30 02:54:57;;;;;;;;;7.67;6.33;;;;;21.29;69.73;101088.94;5066378;28;45783;-86
2023/09/30 02:57:23;;;;;;;;;8.00;7.67;;;;;21.26;69.50;101082.75;5072626;28;45552;-86
2023/09/30 02:59:49;;;;;;;;;8.00;8.00;;;;;21.17;69.52;101064.22;5062989;28;45407;-75
2023/09/30 03:02:18;;;;;;;;;9.67;9.67;;;;;21.24;69.24;101073.03;5062620;28;46037;-85
2023/09/30 03:04:46;;;;;;;;;8.67;7.00;;;;;21.16;69.50;101058.91;5063010;28;45344;-76
2023/09/30 03:07:12;;;;;;;;;6.00;5.33;;;;;21.01;69.63;101022.72;5062678;28;45494;-85
2023/09/30 03:09:39;;;;;;;;;7.67;6.33;;;;;21.13;70.40;101043.91;5064030;28;45514;-85
2023/09/30 03:12:05;;;;;;;;;5.67;5.00;;;;;21.13;69.96;101050.97;5062728;28;45983;-86
2023/09/30 03:14:31;;;;;;;;;8.67;5.67;;;;;21.26;70.13;101068.59;5063340;28;45529;-86
2023/09/30 03:16:58;;;;;;;;;5.33;4.33;;;;;21.18;70.81;101071.31;5062735;28;45422;-86
2023/09/30 03:19:24;;;;;;;;;7.00;7.00;;;;;21.15;70.60;101062.44;5063355;28;45838;-86
2023/09/30 03:21:50;;;;;;;;;3.67;3.33;;;;;21.13;70.51;101054.53;5044640;28;45367;-86
2023/09/30 03:24:16;;;;;;;;;8.00;8.00;;;;;21.05;70.13;101045.72;5063213;28;45454;-81
2023/09/30 03:26:42;;;;;;;;;7.67;6.67;;;;;21.01;70.48;101044.84;5062616;28;45304;-85
2023/09/30 03:29:08;;;;;;;;;6.67;6.00;;;;;21.06;70.96;101060.75;5059529;28;45363;-81
2023/09/30 03:31:35;;;;;;;;;6.33;5.67;;;;;21.03;70.85;101052.81;5059646;28;46028;-86
2023/09/30 03:34:03;;;;;;;;;10.33;7.00;;;;;21.01;70.75;101054.59;5041206;28;45355;-86
2023/09/30 03:36:29;;;;;;;;;6.67;6.67;;;;;21.00;70.87;101053.69;5059295;28;45525;-74
2023/09/30 03:38:56;;;;;;;;;7.00;6.67;;;;;20.83;71.93;101055.53;5060186;28;46103;-74
2023/09/30 03:41:22;;;;;;;;;7.00;7.00;;;;;20.84;71.63;101047.56;5041283;28;47099;-75
2023/09/30 03:43:49;;;;;;;;;9.67;8.33;;;;;20.92;71.83;101050.19;5059182;28;45435;-74
2023/09/30 03:46:15;;;;;;;;;8.00;6.33;;;;;20.77;72.56;101064.44;5060167;28;45387;-78
2023/09/30 03:48:42;;;;;;;;;5.67;5.67;;;;;20.64;72.42;101047.63;5059603;28;45557;-74
2023/09/30 03:51:15;;;;;;;;;9.67;7.00;;;;;20.77;71.95;101063.53;5040772;28;46312;-74
2023/09/30 03:53:44;;;;;;;;;7.00;6.33;;;;;20.81;71.70;101046.69;5059396;28;45355;-86
2023/09/30 03:56:14;;;;;;;;;8.33;7.00;;;;;20.92;71.38;101057.28;5059014;28;45318;-74
2023/09/30 03:58:41;;;;;;;;;7.33;6.00;;;;;20.98;71.55;101043.97;5059384;28;45525;-74
2023/09/30 04:01:07;;;;;;;;;6.00;6.00;;;;;20.97;71.89;101031.56;5059450;28;45672;-82
2023/09/30 04:03:34;;;;;;;;;7.67;5.67;;;;;21.17;71.22;101048.28;5077230;28;45396;-74
2023/09/30 04:06:04;;;;;;;;;6.00;5.67;;;;;21.18;71.18;101034.09;5060086;28;45553;-74
2023/09/30 04:08:33;;;;;;;;;5.00;5.00;;;;;21.33;70.91;101037.53;5059080;28;45507;-83
2023/09/30 04:10:59;;;;;;;;;5.67;5.33;;;;;21.30;70.53;101025.19;5040007;28;46559;-74
2023/09/30 04:13:25;;;;;;;;;6.00;4.33;;;;;21.44;70.61;101046.38;5065753;27;45410;-85
2023/09/30 04:15:51;;;;;;;;;6.33;5.67;;;;;21.48;70.96;101034.81;5060380;28;45449;-74
2023/09/30 04:18:19;;;;;;;;;5.00;5.00;;;;;21.56;70.19;101037.44;5079637;28;45332;-85
2023/09/30 04:20:46;;;;;;;;;6.00;5.00;;;;;21.59;70.45;101032.97;5079366;28;46089;-86
2023/09/30 04:23:13;;;;;;;;;6.00;6.00;;;;;21.63;70.37;101031.19;5078978;27;45484;-76
2023/09/30 04:25:39;;;;;;;;;6.33;4.33;;;;;21.70;70.00;101040.88;5060802;28;45544;-80
2023/09/30 04:28:07;;;;;;;;;7.00;6.00;;;;;21.50;70.26;101022.41;5079067;28;45553;-80
2023/09/30 04:30:32;;;;;;;;;6.00;5.67;;;;;21.62;70.31;101040.91;5078894;27;45521;-75
2023/09/30 04:32:59;;;;;;;;;6.50;6.00;;;;;21.74;70.06;101053.22;5060628;28;45649;-75
2023/09/30 04:35:30;;;;;;;;;5.67;5.00;;;;;21.75;70.25;101052.34;5078902;27;45418;-76
2023/09/30 04:37:56;;;;;;;;;6.67;5.67;;;;;21.79;69.82;101055.88;5060997;28;45212;-75
2023/09/30 04:40:21;;;;;;;;;7.00;6.00;;;;;21.82;69.73;101050.50;5078168;28;45711;-74
2023/09/30 04:42:48;;;;;;;;;5.67;5.67;;;;;21.81;69.93;101044.31;5060849;28;45512;-74
2023/09/30 04:45:19;;;;;;;;;6.33;6.00;;;;;21.79;69.74;101031.94;5059114;28;46642;-74
2023/09/30 04:47:45;;;;;;;;;6.67;6.00;;;;;21.89;69.65;101049.59;5060527;28;45320;-74
2023/09/30 04:50:13;;;;;;;;;6.00;5.00;;;;;21.84;69.55;101044.31;5078021;27;46100;-86
2023/09/30 04:52:53;;;;;;;;;7.67;6.00;;;;;21.95;68.99;101048.66;5040266;28;45374;-87
2023/09/30 04:55:20;;;;;;;;;7.00;6.00;;;;;21.89;69.67;101040.72;5074051;28;45588;-87
2023/09/30 04:57:47;;;;;;;;;6.00;6.00;;;;;21.87;69.68;101032.75;5060900;28;45359;-86
2023/09/30 05:00:17;;;;;;;;;6.00;6.00;;;;;21.88;69.65;101042.47;5077795;28;46262;-86
2023/09/30 05:02:50;;;;;;;;;7.00;6.00;;;;;21.94;69.58;101052.19;5077400;28;45628;-83
2023/09/30 05:05:17;;;;;;;;;5.67;5.67;;;;;21.95;69.66;101046.00;5077753;28;45882;-74
2023/09/30 05:07:46;;;;;;;;;3.33;3.00;;;;;22.02;69.13;101053.00;5074092;28;45392;-86
2023/09/30 05:10:15;;;;;;;;;4.33;4.33;;;;;22.00;69.03;101050.38;5057987;28;47876;-85
2023/09/30 05:12:47;;;;;;;;;5.00;5.00;;;;;21.98;69.15;101037.97;5056630;28;45372;-82
2023/09/30 05:15:17;;;;;;;;;6.00;5.33;;;;;22.10;69.29;101058.25;5073926;28;45434;-85
2023/09/30 05:17:44;;;;;;;;;4.67;4.67;;;;;22.12;68.75;101052.00;5077371;28;44766;-85
2023/09/30 05:20:12;;;;;;;;;8.67;8.00;;;;;22.11;68.53;101052.94;5074039;28;45603;-86
2023/09/30 05:22:39;;;;;;;;;6.00;6.00;;;;;22.01;68.82;101046.81;5078227;28;44687;-74
2023/09/30 05:25:04;;;;;;;;;5.00;4.67;;;;;21.94;68.70;101018.47;5078193;28;44749;-75
2023/09/30 05:27:30;;;;;;;;;7.00;5.00;;;;;22.12;69.14;101044.03;5067532;28;45363;-78
2023/09/30 05:29:56;;;;;;;;;7.00;7.00;;;;;21.92;69.10;101036.25;5079363;28;45850;-80
2023/09/30 05:32:22;;;;;;;;;6.33;5.33;;;;;21.83;69.92;101033.69;5060728;28;45478;-78
2023/09/30 05:34:48;;;;;;;;;5.33;5.33;;;;;21.87;69.81;101039.88;5039611;28;45779;-82
2023/09/30 05:37:14;;;;;;;;;5.00;5.00;;;;;21.97;69.86;101045.06;5057505;28;45452;-76
2023/09/30 05:39:40;;;;;;;;;8.00;6.33;;;;;21.93;69.46;101035.34;5039142;28;45470;-77
2023/09/30 05:42:06;;;;;;;;;6.33;5.67;;;;;22.00;69.36;101044.16;5056402;28;45559;-74
2023/09/30 05:44:32;;;;;;;;;5.00;4.00;;;;;21.95;69.21;101049.53;5056956;28;45351;-77
2023/09/30 05:46:59;;;;;;;;;7.33;5.00;;;;;21.98;69.25;101045.94;5059128;28;45442;-83
2023/09/30 05:49:25;;;;;;;;;5.00;5.00;;;;;21.89;69.72;101032.75;5055750;28;45593;-78
2023/09/30 05:51:51;;;;;;;;;6.00;6.00;;;;;21.88;69.92;101046.94;5055752;28;45613;-87
2023/09/30 05:54:17;;;;;;;;;6.00;6.00;;;;;21.76;69.98;101029.28;5040585;28;45371;-86
2023/09/30 05:56:43;;;;;;;;;5.33;4.67;;;;;21.65;69.93;101009.00;5058217;28;45541;-73
2023/09/30 05:59:09;;;;;;;;;7.00;6.67;;;;;21.85;69.63;101040.75;5055910;28;45972;-85
2023/09/30 06:01:35;;;;;;;;;6.33;5.33;;;;;21.93;69.58;101046.00;5072919;28;45437;-85
2023/09/30 06:04:02;;;;;;;;;8.67;5.67;;;;;22.01;69.15;101048.59;5073719;28;45635;-85
2023/09/30 06:06:30;;;;;;;;;7.00;6.33;;;;;21.93;68.90;101035.34;5076588;28;45687;-86
2023/09/30 06:09:00;;;;;;;;;7.00;6.00;;;;;21.98;68.89;101044.16;5074448;28;46084;-85
2023/09/30 06:11:28;;;;;;;;;6.00;5.00;;;;;22.08;69.08;101055.59;5073621;27;45383;-74
2023/09/30 06:13:54;;;;;;;;;6.67;5.67;;;;;22.06;68.62;101054.72;5072504;28;45494;-85
2023/09/30 06:16:20;;;;;;;;;8.00;7.00;;;;;22.10;68.48;101058.25;5074590;28;45513;-81
2023/09/30 06:18:46;;;;;;;;;8.00;7.00;;;;;22.10;68.65;101047.59;5073738;28;45476;-74
2023/09/30 06:21:14;;;;;;;;;6.00;4.33;;;;;22.08;68.67;101046.75;5073936;28;45568;-75
2023/09/30 06:23:40;;;;;;;;;6.67;6.33;;;;;22.17;68.15;101046.66;5056551;28;45391;-75
2023/09/30 06:26:06;;;;;;;;;9.33;7.67;;;;;22.17;68.55;101046.66;5041265;28;45613;-75
2023/09/30 06:28:33;;;;;;;;;8.00;6.33;;;;;22.07;68.85;101045.88;5048527;28;45464;-86
2023/09/30 06:30:59;;;;;;;;;6.00;6.00;;;;;22.04;69.04;101038.81;5060399;28;45423;-82
2023/09/30 06:33:25;;;;;;;;;6.67;6.33;;;;;22.01;69.21;101033.50;5038010;28;45554;-74
2023/09/30 06:35:51;;;;;;;;;7.00;6.00;;;;;22.08;68.95;101042.28;5069393;28;45687;-76
2023/09/30 06:38:19;;;;;;;;;7.00;7.00;;;;;22.11;68.78;101052.06;5058267;28;46087;-87
2023/09/30 06:40:49;;;;;;;;;7.00;7.00;;;;;22.06;69.10;101044.09;5056106;28;45341;-74
2023/09/30 06:43:17;;;;;;;;;9.00;7.33;;;;;22.11;70.12;101055.59;5038162;28;45391;-80
2023/09/30 06:45:44;;;;;;;;;10.67;9.67;;;;;22.05;69.51;101056.53;5078473;27;45374;-75
2023/09/30 06:48:15;;;;;;;;;7.00;7.00;;;;;21.94;69.85;101057.50;5076950;27;45645;-82
2023/09/30 06:50:48;;;;;;;;;10.67;7.00;;;;;21.99;70.48;101055.72;5074657;27;45922;-74
2023/09/30 06:53:15;;;;;;;;;10.67;9.00;;;;;22.08;70.27;101058.25;5071553;27;45426;-74
2023/09/30 06:55:43;;;;;;;;;7.33;7.00;;;;;22.08;70.02;101054.72;5054254;28;45544;-76
2023/09/30 06:58:10;;;;;;;;;8.33;7.33;;;;;22.18;69.38;101051.06;5074894;28;46269;-79
2023/09/30 07:00:37;;;;;;;;;8.67;7.33;;;;;22.28;69.86;101060.75;5074577;28;45531;-82
2023/09/30 07:03:03;;;;;;;;;8.67;7.67;;;;;22.26;69.40;101059.03;5057592;28;45826;-76
2023/09/30 07:05:29;;;;;;;;;8.00;7.33;;;;;22.36;69.43;101047.38;5075928;28;45486;-74
2023/09/30 07:07:56;;;;;;;;;8.00;8.00;;;;;22.59;69.18;101060.44;5078082;27;45522;-79
2023/09/30 07:10:21;;;;;;;;;7.00;6.00;;;;;22.66;69.04;101047.94;5078301;28;45433;-82
2023/09/30 07:12:47;;;;;;;;;6.67;6.00;;;;;22.89;68.15;101063.63;5060037;28;45362;-75
2023/09/30 07:15:13;;;;;;;;;8.00;8.00;;;;;22.81;68.25;101051.28;5078788;27;45316;-75
2023/09/30 07:17:40;;;;;;;;;8.33;7.00;;;;;22.87;67.23;101045.00;5061799;27;45512;-79
2023/09/30 07:20:07;;;;;;;;;9.33;9.00;;;;;23.05;67.18;101053.69;5084648;27;45747;-78
2023/09/30 07:22:33;;;;;;;;;7.00;7.00;;;;;23.16;66.92;101065.09;5080591;27;45229;-79
2023/09/30 07:24:59;;;;;;;;;11.33;8.33;;;;;23.20;66.89;101062.38;5077020;28;45383;-74
2023/09/30 07:27:25;;;;;;;;;13.67;11.67;;;;;23.44;65.95;101068.25;5077617;28;45402;-74
2023/09/30 07:29:51;;;;;;;;;21.00;19.25;;;;;23.46;66.18;101069.09;5059280;28;45513;-75
2023/09/30 07:32:17;;;;;;;;;16.50;15.25;;;;;23.38;65.91;101079.88;5056700;28;45414;-74
2023/09/30 07:34:42;;;;;;;;;7.33;6.00;;;;;23.32;65.75;101084.44;5077187;28;45505;-88
2023/09/30 07:37:09;;;;;;;;;12.00;11.00;;;;;23.36;66.52;101072.81;5077591;27;45535;-86
2023/09/30 07:39:36;;;;;;;;;13.67;11.67;;;;;23.54;66.44;101077.00;5065794;28;45312;-75
2023/09/30 07:42:02;;;;;;;;;11.67;10.33;;;;;23.84;65.64;101078.31;5075709;28;45439;-87
2023/09/30 07:44:27;;;;;;;;;12.00;10.33;;;;;24.14;64.57;101076.03;5075449;28;45663;-75
2023/09/30 07:46:53;;;;;;;;;11.00;10.00;;;;;24.44;63.46;101066.56;5075519;28;45457;-81
2023/09/30 07:49:19;;;;;;;;;9.67;8.67;;;;;24.71;62.85;101066.94;5077710;28;45509;-76
2023/09/30 07:51:46;;;;;;;;;7.33;6.00;;;;;25.71;60.79;101078.16;5076463;27;45470;-82
2023/09/30 07:54:12;;;;;;;;;8.00;7.00;;;;;26.57;57.93;101065.19;5076847;27;45920;-75
2023/09/30 07:56:38;;;;;;;;;10.00;10.00;;;;;27.15;57.07;101082.28;5058713;28;45629;-88
2023/09/30 07:59:05;;;;;;;;;13.00;11.67;;;;;27.57;56.05;101076.56;5058205;28;45412;-89
2023/09/30 08:01:31;;;;;;;;;12.33;12.33;;;;;28.03;55.71;101078.66;5059266;28;45504;-86
2023/09/30 08:03:57;;;;;;;;;12.00;11.67;;;;;28.48;53.95;101069.91;5078584;28;45469;-82
2023/09/30 08:06:23;;;;;;;;;12.33;12.00;;;;;28.69;53.46;101076.31;5051980;28;46178;-89
2023/09/30 08:08:49;;;;;;;;;10.33;10.33;;;;;29.04;51.95;101077.66;5057222;28;45283;-87
2023/09/30 08:11:15;;;;;;;;;10.33;9.33;;;;;30.02;51.52;101069.28;5057889;28;45431;-75
2023/09/30 08:13:40;;;;;;;;;11.67;11.67;;;;;32.38;46.33;101077.94;5077695;28;45591;-74
2023/09/30 08:16:07;;;;;;;;;9.67;9.00;;;;;34.08;41.50;101073.81;5069852;28;46034;-74
2023/09/30 08:18:32;;;;;;;;;10.00;10.00;;;;;35.30;41.76;101066.25;5057852;28;45305;-74
2023/09/30 08:20:58;;;;;;;;;7.33;7.00;;;;;36.46;37.27;101072.91;5058687;27;45430;-73
2023/09/30 08:23:24;;;;;;;;;12.67;10.33;;;;;37.35;36.84;101080.13;5061529;28;45680;-73
2023/09/30 08:25:49;;;;;;;;;9.33;9.00;;;;;38.17;35.04;101083.00;5059583;28;45480;-90
2023/09/30 08:28:16;;;;;;;;;9.33;9.33;;;;;38.73;33.41;101089.56;5074935;27;45447;-73
2023/09/30 08:30:42;;;;;;;;;8.33;8.33;;;;;39.16;32.76;101088.84;5056237;28;45576;-76
2023/09/30 08:33:08;;;;;;;;;9.33;9.33;;;;;39.57;31.95;101098.19;5058068;28;45482;-77
2023/09/30 08:35:40;;;;;;;;;8.33;8.33;;;;;39.64;32.01;101093.09;5062173;28;46168;-74
2023/09/30 08:38:05;;;;;;;;;9.00;9.00;;;;;39.73;31.14;101087.72;5067645;28;45470;-74
2023/09/30 08:40:31;;;;;;;;;11.33;11.00;;;;;39.33;31.71;101096.47;5058167;28;45322;-74
2023/09/30 08:42:57;;;;;;;;;10.00;9.33;;;;;39.40;30.97;101109.66;5074693;28;45554;-90
2023/09/30 08:45:23;;;;;;;;;10.00;10.00;;;;;39.17;32.62;101098.75;5039872;28;45514;-75
2023/09/30 08:47:50;;;;;;;;;9.67;9.00;;;;;39.22;32.19;101099.25;5057583;28;45480;-75
2023/09/30 08:50:17;;;;;;;;;8.67;8.67;;;;;38.98;32.45;101088.50;5058234;28;45542;-91
2023/09/30 08:52:44;;;;;;;;;7.67;7.67;;;;;38.92;31.43;101089.81;5057731;28;45418;-90
2023/09/30 08:55:12;;;;;;;;;9.00;8.33;;;;;38.84;31.74;101096.88;5039271;28;46827;-74
2023/09/30 08:57:40;;;;;;;;;9.33;8.00;;;;;38.64;31.79;101083.00;5039436;28;46517;-74
2023/09/30 09:00:11;;;;;;;;;8.33;7.33;;;;;38.30;32.87;101090.22;5039613;28;45543;-74
2023/09/30 09:02:37;;;;;;;;;8.00;8.00;;;;;38.39;32.68;101098.56;5074150;28;45576;-88
2023/09/30 09:05:03;;;;;;;;;10.00;9.67;;;;;38.29;33.14;101104.88;5038869;28;45581;-82
2023/09/30 09:07:28;;;;;;;;;9.00;9.00;;;;;38.19;34.16;101088.34;5058035;27;45684;-92
2023/09/30 09:10:08;;;;;;;;;6.33;6.33;;;;;38.06;33.94;101088.41;5064691;28;45461;-73
2023/09/30 09:12:36;;;;;;;;;10.33;10.00;;;;;37.93;34.25;101079.44;5068694;28;45536;-74
2023/09/30 09:15:05;;;;;;;;;9.67;9.33;;;;;37.82;34.31;101088.41;5056903;28;46542;-74
2023/09/30 09:17:41;;;;;;;;;10.00;10.00;;;;;37.71;34.91;101085.66;5057000;28;45289;-74
2023/09/30 09:20:09;;;;;;;;;8.67;8.67;;;;;37.57;34.83;101083.94;5056361;28;45449;-80
2023/09/30 09:22:43;;;;;;;;;10.67;10.00;;;;;37.45;36.01;101077.56;5039081;28;45335;-75
2023/09/30 09:25:09;;;;;;;;;9.00;8.33;;;;;38.01;34.47;101082.44;5048767;28;45678;-75
2023/09/30 09:27:37;;;;;;;;;9.33;8.67;;;;;37.84;34.45;101053.72;5061698;28;45445;-93
2023/09/30 09:30:15;;;;;;;;;8.00;7.00;;;;;38.29;35.19;101064.78;5056298;28;45347;-90
2023/09/30 09:32:54;;;;;;;;;7.67;7.67;;;;;38.80;33.93;101068.97;5056643;28;45553;-75
2023/09/30 09:35:22;;;;;;;;;11.00;10.33;;;;;38.85;33.79;101058.53;5056410;28;45550;-75
2023/09/30 09:38:06;;;;;;;;;12.00;12.00;;;;;38.97;32.87;101073.94;5055275;28;46762;-93
2023/09/30 09:40:40;;;;;;;;;8.33;8.33;;;;;39.08;33.73;101062.16;5051113;28;45359;-74
2023/09/30 09:43:06;;;;;;;;;8.00;8.00;;;;;39.32;32.44;101037.38;5040437;28;45400;-75
2023/09/30 09:45:39;;;;;;;;;9.67;9.33;;;;;39.76;32.67;101061.97;5051552;28;46320;-75
2023/09/30 09:48:06;;;;;;;;;8.33;8.33;;;;;39.89;32.69;101057.22;5077182;28;45339;-82
2023/09/30 09:50:32;;;;;;;;;10.00;9.33;;;;;40.09;32.32;101055.50;5077297;28;45434;-93
2023/09/30 09:53:00;;;;;;;;;8.00;8.00;;;;;40.17;31.64;101052.94;5077560;28;45331;-88
2023/09/30 09:55:27;;;;;;;;;10.00;9.00;;;;;40.08;31.75;101052.88;5070450;28;45514;-93
2023/09/30 09:57:54;;;;;;;;;9.67;9.00;;;;;39.95;31.73;101020.22;5057617;28;45319;-85
2023/09/30 10:00:24;;;;;;;;;10.00;10.00;;;;;40.14;32.62;101039.53;5064913;28;45356;-80
2023/09/30 10:02:52;;;;;;;;;8.67;7.67;;;;;40.17;31.29;101044.75;5056867;28;45505;-75
2023/09/30 10:05:19;;;;;;;;;8.67;8.67;;;;;39.39;33.18;101045.91;5037342;28;47386;-75
2023/09/30 10:07:49;;;;;;;;;7.00;7.00;;;;;38.96;33.78;101033.94;5042970;27;45584;-75
2023/09/30 10:10:18;;;;;;;;;8.33;8.33;;;;;38.70;33.44;101044.28;5057616;28;45371;-75
2023/09/30 10:12:44;;;;;;;;;9.33;7.33;;;;;38.58;34.06;101027.03;5061728;28;45524;-75
2023/09/30 10:15:25;;;;;;;;;10.00;9.33;;;;;38.45;34.35;101026.22;5047713;28;45494;-75
2023/09/30 10:18:06;;;;;;;;;8.67;8.67;;;;;38.27;35.33;101030.44;5044796;28;45535;-74
2023/09/30 10:20:34;;;;;;;;;10.33;10.33;;;;;37.89;35.27;101023.41;5061887;28;45468;-79
2023/09/30 10:23:18;;;;;;;;;8.00;8.00;;;;;37.68;35.77;101026.78;5056162;28;45414;-74
2023/09/30 10:25:47;;;;;;;;;9.00;9.00;;;;;37.73;35.51;101015.53;5044285;28;46517;-91
2023/09/30 10:28:39;;;;;;;;;9.33;9.33;;;;;37.83;36.20;101010.25;5074816;28;45600;-74
2023/09/30 10:31:19;;;;;;;;;8.00;8.00;;;;;37.81;36.31;101003.03;5058621;28;45431;-74
2023/09/30 10:34:02;;;;;;;;;9.00;9.00;;;;;38.08;35.44;101017.38;5038153;28;45378;-75
2023/09/30 10:36:32;;;;;;;;;8.33;8.33;;;;;37.91;36.29;101015.97;5055222;28;46260;-91
2023/09/30 10:38:57;;;;;;;;;12.00;12.00;;;;;37.77;36.48;101006.13;5058178;27;45732;-74
2023/09/30 10:41:41;;;;;;;;;9.00;9.00;;;;;37.77;35.66;101007.00;5079320;28;45192;-76
2023/09/30 10:44:22;;;;;;;;;8.00;7.00;;;;;37.60;35.55;101015.59;5063538;28;45367;-74
2023/09/30 10:46:49;;;;;;;;;6.00;6.00;;;;;37.37;35.16;100998.25;5077875;28;45421;-74
2023/09/30 10:49:21;;;;;;;;;10.33;10.33;;;;;37.41;34.75;101007.94;5068297;28;45336;-74
2023/09/30 10:51:46;;;;;;;;;52.50;43.50;;;;;37.06;36.26;100994.22;5059515;28;45698;-89
2023/09/30 10:54:13;;;;;;;;;18.67;17.00;;;;;36.89;36.30;100999.06;5059601;28;45601;-89
2023/09/30 10:56:38;;;;;;;;;29.50;28.25;;;;;36.78;36.96;100998.97;5051327;28;45470;-75
2023/09/30 10:59:04;;;;;;;;;80.33;75.33;;;;;36.79;36.84;100993.44;5078896;28;45453;-74
2023/09/30 11:01:34;;;;;;;;;64.25;49.50;;;;;36.69;37.24;100991.47;5043253;28;45244;-74
2023/09/30 11:04:04;;;;;;;;;66.75;52.50;;;;;36.69;37.57;100986.03;5059239;28;45476;-75
2023/09/30 11:06:33;;;;;;;;;52.50;42.25;;;;;36.70;37.30;100982.34;5079947;28;46149;-74
2023/09/30 11:09:00;;;;;;;;;11.33;11.33;;;;;36.61;38.36;100989.31;5082075;28;45696;-75
2023/09/30 11:11:44;;;;;;;;;13.00;13.00;;;;;36.37;38.67;100991.91;5059405;28;45430;-74
2023/09/30 11:14:36;;;;;;;;;22.67;21.00;;;;;36.36;38.96;100993.78;5060962;28;45376;-80
2023/09/30 11:17:06;;;;;;;;;11.33;10.33;;;;;36.22;39.41;101000.22;5064210;28;45504;-74
2023/09/30 11:19:37;;;;;;;;;10.00;9.67;;;;;36.07;39.63;100995.81;5058565;28;45336;-74
2023/09/30 11:22:03;;;;;;;;;8.67;8.33;;;;;36.15;39.00;100998.00;5058650;28;45526;-77
2023/09/30 11:24:29;;;;;;;;;8.00;6.00;;;;;36.06;39.06;100982.34;5040927;28;45442;-88